sensor_id;sensor_type;location;lat;lon;timestamp;P1;durP1;ratioP1;P2;durP2;ratioP2
830;SDS011;397;50.564;7.272;2023-12-07T00:00:03;21.60;;;14.50;;
830;SDS011;397;50.564;7.272;2023-12-07T00:02:31;18.97;;;15.00;;
830;SDS011;397;50.564;7.272;2023-12-07T00:04:58;17.50;;;15.33;;
830;SDS011;397;50.564;7.272;2023-12-07T00:07:25;23.30;;;15.10;;
830;SDS011;397;50.564;7.272;2023-12-07T00:09:52;20.27;;;14.83;;
830;SDS011;397;50.564;7.272;2023-12-07T00:12:20;23.03;;;14.10;;
830;SDS011;397;50.564;7.272;2023-12-07T00:14:47;20.13;;;14.47;;
830;SDS011;397;50.564;7.272;2023-12-07T00:17:14;18.80;;;15.03;;
830;SDS011;397;50.564;7.272;2023-12-07T00:19:41;17.10;;;13.80;;
830;SDS011;397;50.564;7.272;2023-12-07T00:22:09;17.77;;;13.97;;
830;SDS011;397;50.564;7.272;2023-12-07T00:24:36;17.70;;;14.03;;
830;SDS011;397;50.564;7.272;2023-12-07T00:27:03;17.70;;;14.80;;
830;SDS011;397;50.564;7.272;2023-12-07T00:29:31;17.80;;;14.17;;
830;SDS011;397;50.564;7.272;2023-12-07T00:31:58;17.67;;;13.20;;
830;SDS011;397;50.564;7.272;2023-12-07T00:34:27;20.93;;;14.07;;
830;SDS011;397;50.564;7.272;2023-12-07T00:36:54;15.23;;;13.63;;
830;SDS011;397;50.564;7.272;2023-12-07T00:39:22;16.80;;;12.47;;
830;SDS011;397;50.564;7.272;2023-12-07T00:41:49;15.23;;;13.70;;
830;SDS011;397;50.564;7.272;2023-12-07T00:44:16;19.00;;;16.87;;
830;SDS011;397;50.564;7.272;2023-12-07T00:46:43;13.83;;;12.40;;
830;SDS011;397;50.564;7.272;2023-12-07T00:49:11;16.27;;;13.80;;
830;SDS011;397;50.564;7.272;2023-12-07T00:51:38;16.77;;;14.30;;
830;SDS011;397;50.564;7.272;2023-12-07T00:54:06;19.57;;;13.30;;
830;SDS011;397;50.564;7.272;2023-12-07T00:56:33;14.33;;;12.83;;
830;SDS011;397;50.564;7.272;2023-12-07T00:59:00;17.43;;;13.20;;
830;SDS011;397;50.564;7.272;2023-12-07T01:01:28;16.37;;;13.80;;
830;SDS011;397;50.564;7.272;2023-12-07T01:03:55;19.60;;;14.03;;
830;SDS011;397;50.564;7.272;2023-12-07T01:06:22;14.90;;;12.50;;
830;SDS011;397;50.564;7.272;2023-12-07T01:08:49;19.60;;;13.20;;
830;SDS011;397;50.564;7.272;2023-12-07T01:11:17;14.50;;;13.00;;
830;SDS011;397;50.564;7.272;2023-12-07T01:13:44;15.80;;;12.10;;
830;SDS011;397;50.564;7.272;2023-12-07T01:16:11;20.90;;;13.00;;
830;SDS011;397;50.564;7.272;2023-12-07T01:18:38;14.60;;;11.87;;
830;SDS011;397;50.564;7.272;2023-12-07T01:21:06;14.70;;;13.03;;
830;SDS011;397;50.564;7.272;2023-12-07T01:23:33;16.47;;;12.80;;
830;SDS011;397;50.564;7.272;2023-12-07T01:26:00;21.77;;;13.00;;
830;SDS011;397;50.564;7.272;2023-12-07T01:28:28;14.60;;;12.97;;
830;SDS011;397;50.564;7.272;2023-12-07T01:30:55;15.40;;;13.80;;
830;SDS011;397;50.564;7.272;2023-12-07T01:33:23;18.80;;;14.27;;
830;SDS011;397;50.564;7.272;2023-12-07T01:35:50;17.10;;;14.10;;
830;SDS011;397;50.564;7.272;2023-12-07T01:38:18;20.00;;;14.50;;
830;SDS011;397;50.564;7.272;2023-12-07T01:40:45;20.10;;;13.33;;
830;SDS011;397;50.564;7.272;2023-12-07T01:43:13;13.60;;;12.27;;
830;SDS011;397;50.564;7.272;2023-12-07T01:45:40;18.17;;;14.10;;
830;SDS011;397;50.564;7.272;2023-12-07T01:48:07;18.43;;;13.50;;
830;SDS011;397;50.564;7.272;2023-12-07T01:50:34;18.50;;;13.70;;
830;SDS011;397;50.564;7.272;2023-12-07T01:53:02;16.40;;;12.87;;
830;SDS011;397;50.564;7.272;2023-12-07T01:55:30;15.53;;;12.07;;
830;SDS011;397;50.564;7.272;2023-12-07T01:57:58;13.60;;;12.30;;
830;SDS011;397;50.564;7.272;2023-12-07T02:00:26;14.77;;;11.97;;
830;SDS011;397;50.564;7.272;2023-12-07T02:02:53;16.03;;;12.77;;
830;SDS011;397;50.564;7.272;2023-12-07T02:05:21;15.33;;;12.83;;
830;SDS011;397;50.564;7.272;2023-12-07T02:07:49;15.00;;;13.43;;
830;SDS011;397;50.564;7.272;2023-12-07T02:10:16;14.13;;;11.93;;
830;SDS011;397;50.564;7.272;2023-12-07T02:12:45;17.20;;;12.40;;
830;SDS011;397;50.564;7.272;2023-12-07T02:15:13;14.50;;;12.97;;
830;SDS011;397;50.564;7.272;2023-12-07T02:22:55;17.00;;;13.40;;
830;SDS011;397;50.564;7.272;2023-12-07T02:25:25;16.90;;;12.90;;
830;SDS011;397;50.564;7.272;2023-12-07T02:27:52;14.93;;;12.90;;
830;SDS011;397;50.564;7.272;2023-12-07T02:30:19;15.57;;;13.60;;
830;SDS011;397;50.564;7.272;2023-12-07T02:32:47;13.43;;;11.63;;
830;SDS011;397;50.564;7.272;2023-12-07T02:35:14;14.83;;;12.77;;
830;SDS011;397;50.564;7.272;2023-12-07T02:37:45;15.03;;;11.93;;
830;SDS011;397;50.564;7.272;2023-12-07T02:40:14;15.70;;;14.07;;
830;SDS011;397;50.564;7.272;2023-12-07T02:42:42;15.50;;;12.27;;
830;SDS011;397;50.564;7.272;2023-12-07T02:45:10;15.90;;;12.10;;
830;SDS011;397;50.564;7.272;2023-12-07T02:47:38;15.30;;;13.60;;
830;SDS011;397;50.564;7.272;2023-12-07T02:50:06;15.60;;;12.27;;
830;SDS011;397;50.564;7.272;2023-12-07T02:52:34;15.20;;;13.67;;
830;SDS011;397;50.564;7.272;2023-12-07T02:55:01;22.47;;;13.93;;
830;SDS011;397;50.564;7.272;2023-12-07T02:57:30;14.97;;;13.03;;
830;SDS011;397;50.564;7.272;2023-12-07T02:59:59;14.87;;;13.27;;
830;SDS011;397;50.564;7.272;2023-12-07T03:02:26;16.13;;;13.07;;
830;SDS011;397;50.564;7.272;2023-12-07T03:04:53;14.23;;;12.80;;
830;SDS011;397;50.564;7.272;2023-12-07T03:07:21;15.67;;;13.47;;
830;SDS011;397;50.564;7.272;2023-12-07T03:09:48;15.57;;;12.93;;
830;SDS011;397;50.564;7.272;2023-12-07T03:12:16;15.20;;;13.10;;
830;SDS011;397;50.564;7.272;2023-12-07T03:14:43;13.60;;;11.17;;
830;SDS011;397;50.564;7.272;2023-12-07T03:17:10;15.50;;;11.30;;
830;SDS011;397;50.564;7.272;2023-12-07T03:19:38;13.43;;;12.13;;
830;SDS011;397;50.564;7.272;2023-12-07T03:22:05;13.17;;;10.53;;
830;SDS011;397;50.564;7.272;2023-12-07T03:24:36;17.23;;;10.97;;
830;SDS011;397;50.564;7.272;2023-12-07T03:27:03;13.80;;;10.57;;
830;SDS011;397;50.564;7.272;2023-12-07T03:29:31;12.90;;;10.60;;
830;SDS011;397;50.564;7.272;2023-12-07T03:31:59;16.17;;;14.17;;
830;SDS011;397;50.564;7.272;2023-12-07T03:34:26;13.97;;;11.50;;
830;SDS011;397;50.564;7.272;2023-12-07T03:36:53;13.10;;;11.03;;
830;SDS011;397;50.564;7.272;2023-12-07T03:39:21;14.67;;;11.87;;
830;SDS011;397;50.564;7.272;2023-12-07T03:41:49;13.20;;;11.80;;
830;SDS011;397;50.564;7.272;2023-12-07T03:44:16;15.67;;;13.10;;
830;SDS011;397;50.564;7.272;2023-12-07T03:46:43;17.00;;;13.00;;
830;SDS011;397;50.564;7.272;2023-12-07T03:49:11;18.20;;;13.50;;
830;SDS011;397;50.564;7.272;2023-12-07T03:51:38;15.13;;;11.93;;
830;SDS011;397;50.564;7.272;2023-12-07T03:54:05;11.40;;;10.03;;
830;SDS011;397;50.564;7.272;2023-12-07T03:56:32;12.63;;;11.30;;
830;SDS011;397;50.564;7.272;2023-12-07T03:59:00;13.93;;;12.43;;
830;SDS011;397;50.564;7.272;2023-12-07T04:01:28;13.50;;;12.03;;
830;SDS011;397;50.564;7.272;2023-12-07T04:03:56;13.77;;;11.97;;
830;SDS011;397;50.564;7.272;2023-12-07T04:06:25;17.10;;;13.30;;
830;SDS011;397;50.564;7.272;2023-12-07T04:08:52;13.77;;;11.97;;
830;SDS011;397;50.564;7.272;2023-12-07T04:11:20;11.90;;;9.83;;
830;SDS011;397;50.564;7.272;2023-12-07T04:13:48;12.37;;;10.87;;
830;SDS011;397;50.564;7.272;2023-12-07T04:16:16;14.70;;;10.87;;
830;SDS011;397;50.564;7.272;2023-12-07T04:18:43;19.20;;;9.27;;
830;SDS011;397;50.564;7.272;2023-12-07T04:21:10;13.73;;;10.70;;
830;SDS011;397;50.564;7.272;2023-12-07T04:23:38;16.70;;;12.87;;
830;SDS011;397;50.564;7.272;2023-12-07T04:26:05;17.03;;;11.60;;
830;SDS011;397;50.564;7.272;2023-12-07T04:28:32;14.17;;;11.87;;
830;SDS011;397;50.564;7.272;2023-12-07T04:30:59;12.87;;;11.57;;
830;SDS011;397;50.564;7.272;2023-12-07T04:33:27;14.93;;;12.13;;
830;SDS011;397;50.564;7.272;2023-12-07T04:35:54;14.27;;;12.40;;
830;SDS011;397;50.564;7.272;2023-12-07T04:38:21;17.30;;;13.37;;
830;SDS011;397;50.564;7.272;2023-12-07T04:40:49;13.40;;;10.67;;
830;SDS011;397;50.564;7.272;2023-12-07T04:43:16;15.30;;;8.90;;
830;SDS011;397;50.564;7.272;2023-12-07T04:45:43;12.27;;;9.40;;
830;SDS011;397;50.564;7.272;2023-12-07T04:48:10;10.90;;;8.87;;
830;SDS011;397;50.564;7.272;2023-12-07T04:50:38;12.53;;;9.97;;
830;SDS011;397;50.564;7.272;2023-12-07T04:53:05;13.37;;;10.07;;
830;SDS011;397;50.564;7.272;2023-12-07T04:55:32;10.80;;;9.13;;
830;SDS011;397;50.564;7.272;2023-12-07T04:57:59;11.10;;;8.30;;
830;SDS011;397;50.564;7.272;2023-12-07T05:00:27;11.00;;;9.40;;
830;SDS011;397;50.564;7.272;2023-12-07T05:02:54;14.90;;;8.70;;
830;SDS011;397;50.564;7.272;2023-12-07T05:05:21;14.50;;;10.73;;
830;SDS011;397;50.564;7.272;2023-12-07T05:07:50;10.63;;;9.17;;
830;SDS011;397;50.564;7.272;2023-12-07T05:10:17;16.30;;;10.17;;
830;SDS011;397;50.564;7.272;2023-12-07T05:12:45;10.97;;;8.17;;
830;SDS011;397;50.564;7.272;2023-12-07T05:15:12;11.57;;;9.73;;
830;SDS011;397;50.564;7.272;2023-12-07T05:17:39;11.73;;;9.03;;
830;SDS011;397;50.564;7.272;2023-12-07T05:20:07;11.10;;;9.47;;
830;SDS011;397;50.564;7.272;2023-12-07T05:22:34;13.37;;;10.20;;
830;SDS011;397;50.564;7.272;2023-12-07T05:25:01;16.23;;;9.37;;
830;SDS011;397;50.564;7.272;2023-12-07T05:27:30;13.00;;;10.10;;
830;SDS011;397;50.564;7.272;2023-12-07T05:29:57;14.73;;;10.87;;
830;SDS011;397;50.564;7.272;2023-12-07T05:32:25;12.80;;;10.50;;
830;SDS011;397;50.564;7.272;2023-12-07T05:34:52;12.93;;;11.33;;
830;SDS011;397;50.564;7.272;2023-12-07T05:37:19;13.60;;;11.37;;
830;SDS011;397;50.564;7.272;2023-12-07T05:39:46;14.70;;;11.23;;
830;SDS011;397;50.564;7.272;2023-12-07T05:42:14;12.43;;;11.00;;
830;SDS011;397;50.564;7.272;2023-12-07T05:44:41;12.33;;;10.23;;
830;SDS011;397;50.564;7.272;2023-12-07T05:47:08;15.33;;;12.93;;
830;SDS011;397;50.564;7.272;2023-12-07T05:49:36;20.53;;;12.30;;
830;SDS011;397;50.564;7.272;2023-12-07T05:52:03;14.37;;;12.50;;
830;SDS011;397;50.564;7.272;2023-12-07T05:54:30;14.50;;;12.40;;
830;SDS011;397;50.564;7.272;2023-12-07T05:56:58;14.00;;;12.03;;
830;SDS011;397;50.564;7.272;2023-12-07T05:59:25;18.13;;;13.27;;
830;SDS011;397;50.564;7.272;2023-12-07T06:01:53;17.23;;;14.80;;
830;SDS011;397;50.564;7.272;2023-12-07T06:04:20;15.00;;;12.53;;
830;SDS011;397;50.564;7.272;2023-12-07T06:06:47;19.63;;;15.57;;
830;SDS011;397;50.564;7.272;2023-12-07T06:09:14;21.73;;;13.87;;
830;SDS011;397;50.564;7.272;2023-12-07T06:11:42;19.97;;;15.37;;
830;SDS011;397;50.564;7.272;2023-12-07T06:14:09;15.50;;;13.53;;
830;SDS011;397;50.564;7.272;2023-12-07T06:16:37;14.13;;;12.33;;
830;SDS011;397;50.564;7.272;2023-12-07T06:19:05;17.30;;;12.17;;
830;SDS011;397;50.564;7.272;2023-12-07T06:21:32;15.53;;;12.60;;
830;SDS011;397;50.564;7.272;2023-12-07T06:23:59;15.93;;;13.30;;
830;SDS011;397;50.564;7.272;2023-12-07T06:26:26;16.50;;;13.43;;
830;SDS011;397;50.564;7.272;2023-12-07T06:28:54;17.10;;;14.00;;
830;SDS011;397;50.564;7.272;2023-12-07T06:31:21;18.90;;;14.83;;
830;SDS011;397;50.564;7.272;2023-12-07T06:33:48;18.63;;;15.70;;
830;SDS011;397;50.564;7.272;2023-12-07T06:36:19;19.80;;;14.93;;
830;SDS011;397;50.564;7.272;2023-12-07T06:38:47;28.00;;;19.00;;
830;SDS011;397;50.564;7.272;2023-12-07T06:41:15;19.40;;;14.10;;
830;SDS011;397;50.564;7.272;2023-12-07T06:43:42;16.90;;;13.30;;
830;SDS011;397;50.564;7.272;2023-12-07T06:46:15;18.33;;;14.73;;
830;SDS011;397;50.564;7.272;2023-12-07T06:48:39;21.37;;;14.67;;
830;SDS011;397;50.564;7.272;2023-12-07T06:51:06;22.40;;;15.10;;
830;SDS011;397;50.564;7.272;2023-12-07T06:53:34;29.00;;;16.87;;
830;SDS011;397;50.564;7.272;2023-12-07T06:56:01;29.63;;;18.53;;
830;SDS011;397;50.564;7.272;2023-12-07T06:58:28;21.23;;;15.97;;
830;SDS011;397;50.564;7.272;2023-12-07T07:00:55;21.53;;;15.13;;
830;SDS011;397;50.564;7.272;2023-12-07T07:03:23;23.70;;;18.00;;
830;SDS011;397;50.564;7.272;2023-12-07T07:05:50;23.77;;;17.63;;
830;SDS011;397;50.564;7.272;2023-12-07T07:08:18;25.30;;;18.93;;
830;SDS011;397;50.564;7.272;2023-12-07T07:10:45;24.10;;;17.60;;
830;SDS011;397;50.564;7.272;2023-12-07T07:13:15;25.43;;;17.73;;
830;SDS011;397;50.564;7.272;2023-12-07T07:15:43;21.07;;;16.30;;
830;SDS011;397;50.564;7.272;2023-12-07T07:18:10;21.73;;;16.20;;
830;SDS011;397;50.564;7.272;2023-12-07T07:20:37;23.00;;;17.00;;
830;SDS011;397;50.564;7.272;2023-12-07T07:23:05;19.83;;;16.40;;
830;SDS011;397;50.564;7.272;2023-12-07T07:25:34;20.60;;;17.23;;
830;SDS011;397;50.564;7.272;2023-12-07T07:28:01;22.87;;;19.33;;
830;SDS011;397;50.564;7.272;2023-12-07T07:30:29;23.87;;;17.43;;
830;SDS011;397;50.564;7.272;2023-12-07T07:32:56;24.80;;;18.27;;
830;SDS011;397;50.564;7.272;2023-12-07T07:35:24;25.03;;;18.37;;
830;SDS011;397;50.564;7.272;2023-12-07T07:37:53;28.20;;;20.43;;
830;SDS011;397;50.564;7.272;2023-12-07T07:40:20;27.90;;;21.53;;
830;SDS011;397;50.564;7.272;2023-12-07T07:42:47;28.97;;;20.77;;
830;SDS011;397;50.564;7.272;2023-12-07T07:45:14;25.40;;;17.53;;
830;SDS011;397;50.564;7.272;2023-12-07T07:47:42;22.30;;;16.97;;
830;SDS011;397;50.564;7.272;2023-12-07T07:50:09;24.50;;;18.77;;
830;SDS011;397;50.564;7.272;2023-12-07T07:52:37;25.73;;;19.57;;
830;SDS011;397;50.564;7.272;2023-12-07T07:55:06;21.97;;;17.43;;
830;SDS011;397;50.564;7.272;2023-12-07T07:57:34;24.90;;;18.80;;
830;SDS011;397;50.564;7.272;2023-12-07T08:00:01;22.83;;;17.17;;
830;SDS011;397;50.564;7.272;2023-12-07T08:02:30;22.27;;;17.80;;
830;SDS011;397;50.564;7.272;2023-12-07T08:04:57;22.00;;;17.07;;
830;SDS011;397;50.564;7.272;2023-12-07T08:07:24;23.77;;;18.00;;
830;SDS011;397;50.564;7.272;2023-12-07T08:09:52;26.13;;;17.10;;
830;SDS011;397;50.564;7.272;2023-12-07T08:12:19;22.10;;;16.63;;
830;SDS011;397;50.564;7.272;2023-12-07T08:14:48;29.17;;;17.97;;
830;SDS011;397;50.564;7.272;2023-12-07T08:17:16;23.43;;;16.87;;
830;SDS011;397;50.564;7.272;2023-12-07T08:19:44;22.70;;;18.23;;
830;SDS011;397;50.564;7.272;2023-12-07T08:22:12;19.47;;;15.93;;
830;SDS011;397;50.564;7.272;2023-12-07T08:24:39;19.43;;;15.73;;
830;SDS011;397;50.564;7.272;2023-12-07T08:27:07;24.57;;;17.80;;
830;SDS011;397;50.564;7.272;2023-12-07T08:29:34;20.40;;;16.30;;
830;SDS011;397;50.564;7.272;2023-12-07T08:32:02;22.10;;;16.37;;
830;SDS011;397;50.564;7.272;2023-12-07T08:34:30;25.43;;;18.30;;
830;SDS011;397;50.564;7.272;2023-12-07T08:36:57;21.80;;;17.07;;
830;SDS011;397;50.564;7.272;2023-12-07T08:39:24;21.03;;;17.33;;
830;SDS011;397;50.564;7.272;2023-12-07T08:41:52;23.43;;;16.23;;
830;SDS011;397;50.564;7.272;2023-12-07T08:44:19;20.63;;;15.40;;
830;SDS011;397;50.564;7.272;2023-12-07T08:46:46;20.27;;;16.23;;
830;SDS011;397;50.564;7.272;2023-12-07T08:49:14;18.00;;;15.20;;
830;SDS011;397;50.564;7.272;2023-12-07T08:51:41;19.03;;;15.10;;
830;SDS011;397;50.564;7.272;2023-12-07T08:54:08;20.23;;;15.40;;
830;SDS011;397;50.564;7.272;2023-12-07T08:56:36;20.10;;;16.30;;
830;SDS011;397;50.564;7.272;2023-12-07T08:59:03;30.37;;;16.33;;
830;SDS011;397;50.564;7.272;2023-12-07T09:01:30;15.73;;;13.00;;
830;SDS011;397;50.564;7.272;2023-12-07T09:03:59;18.53;;;14.77;;
830;SDS011;397;50.564;7.272;2023-12-07T09:06:27;25.40;;;16.37;;
830;SDS011;397;50.564;7.272;2023-12-07T09:08:54;21.27;;;14.90;;
830;SDS011;397;50.564;7.272;2023-12-07T09:11:22;22.43;;;15.53;;
830;SDS011;397;50.564;7.272;2023-12-07T09:13:49;17.40;;;15.50;;
830;SDS011;397;50.564;7.272;2023-12-07T09:16:16;18.27;;;14.67;;
830;SDS011;397;50.564;7.272;2023-12-07T09:18:44;18.50;;;14.30;;
830;SDS011;397;50.564;7.272;2023-12-07T09:21:12;20.23;;;15.80;;
830;SDS011;397;50.564;7.272;2023-12-07T09:23:39;19.93;;;13.70;;
830;SDS011;397;50.564;7.272;2023-12-07T09:26:06;18.37;;;13.67;;
830;SDS011;397;50.564;7.272;2023-12-07T09:28:34;18.00;;;14.43;;
830;SDS011;397;50.564;7.272;2023-12-07T09:31:01;16.53;;;14.40;;
830;SDS011;397;50.564;7.272;2023-12-07T09:33:28;23.27;;;14.07;;
830;SDS011;397;50.564;7.272;2023-12-07T09:35:55;18.10;;;14.10;;
830;SDS011;397;50.564;7.272;2023-12-07T09:38:23;19.10;;;15.17;;
830;SDS011;397;50.564;7.272;2023-12-07T09:40:53;17.27;;;14.40;;
830;SDS011;397;50.564;7.272;2023-12-07T09:43:21;17.83;;;13.90;;
830;SDS011;397;50.564;7.272;2023-12-07T09:45:49;17.40;;;14.77;;
830;SDS011;397;50.564;7.272;2023-12-07T09:48:17;20.93;;;13.73;;
830;SDS011;397;50.564;7.272;2023-12-07T09:50:45;17.33;;;14.00;;
830;SDS011;397;50.564;7.272;2023-12-07T09:53:12;21.93;;;15.87;;
830;SDS011;397;50.564;7.272;2023-12-07T09:55:39;16.20;;;14.10;;
830;SDS011;397;50.564;7.272;2023-12-07T09:58:06;17.00;;;13.83;;
830;SDS011;397;50.564;7.272;2023-12-07T10:00:34;18.33;;;14.60;;
830;SDS011;397;50.564;7.272;2023-12-07T10:03:01;18.00;;;12.70;;
830;SDS011;397;50.564;7.272;2023-12-07T10:05:29;15.77;;;13.43;;
830;SDS011;397;50.564;7.272;2023-12-07T10:07:56;15.20;;;12.43;;
830;SDS011;397;50.564;7.272;2023-12-07T10:10:23;17.90;;;13.33;;
830;SDS011;397;50.564;7.272;2023-12-07T10:12:53;20.03;;;12.30;;
830;SDS011;397;50.564;7.272;2023-12-07T10:15:21;14.23;;;12.73;;
830;SDS011;397;50.564;7.272;2023-12-07T10:17:55;19.67;;;13.93;;
830;SDS011;397;50.564;7.272;2023-12-07T10:20:24;15.20;;;13.60;;
830;SDS011;397;50.564;7.272;2023-12-07T10:23:04;16.90;;;13.77;;
830;SDS011;397;50.564;7.272;2023-12-07T10:25:35;16.90;;;13.00;;
830;SDS011;397;50.564;7.272;2023-12-07T10:28:02;16.07;;;12.60;;
830;SDS011;397;50.564;7.272;2023-12-07T10:30:31;14.70;;;13.13;;
830;SDS011;397;50.564;7.272;2023-12-07T10:32:58;12.70;;;11.23;;
830;SDS011;397;50.564;7.272;2023-12-07T10:35:25;16.50;;;12.33;;
830;SDS011;397;50.564;7.272;2023-12-07T10:37:53;14.07;;;12.53;;
830;SDS011;397;50.564;7.272;2023-12-07T10:40:20;14.47;;;12.60;;
830;SDS011;397;50.564;7.272;2023-12-07T10:42:47;16.23;;;12.63;;
830;SDS011;397;50.564;7.272;2023-12-07T10:45:15;15.50;;;12.80;;
830;SDS011;397;50.564;7.272;2023-12-07T10:47:43;12.20;;;10.80;;
830;SDS011;397;50.564;7.272;2023-12-07T10:50:10;13.97;;;11.10;;
830;SDS011;397;50.564;7.272;2023-12-07T10:52:44;14.47;;;11.60;;
830;SDS011;397;50.564;7.272;2023-12-07T10:55:16;14.00;;;12.60;;
830;SDS011;397;50.564;7.272;2023-12-07T10:57:39;15.73;;;13.27;;
830;SDS011;397;50.564;7.272;2023-12-07T11:00:07;15.50;;;11.80;;
830;SDS011;397;50.564;7.272;2023-12-07T11:02:35;12.07;;;10.73;;
830;SDS011;397;50.564;7.272;2023-12-07T11:05:03;12.47;;;11.17;;
830;SDS011;397;50.564;7.272;2023-12-07T11:07:36;14.10;;;11.07;;
830;SDS011;397;50.564;7.272;2023-12-07T11:10:04;13.37;;;10.97;;
830;SDS011;397;50.564;7.272;2023-12-07T11:12:31;13.60;;;11.13;;
830;SDS011;397;50.564;7.272;2023-12-07T11:14:58;12.90;;;11.40;;
830;SDS011;397;50.564;7.272;2023-12-07T11:17:26;12.33;;;10.40;;
830;SDS011;397;50.564;7.272;2023-12-07T11:19:53;15.67;;;11.30;;
830;SDS011;397;50.564;7.272;2023-12-07T11:22:21;11.60;;;10.40;;
830;SDS011;397;50.564;7.272;2023-12-07T11:24:58;11.80;;;9.97;;
830;SDS011;397;50.564;7.272;2023-12-07T11:27:30;10.33;;;9.20;;
830;SDS011;397;50.564;7.272;2023-12-07T11:29:59;11.83;;;9.87;;
830;SDS011;397;50.564;7.272;2023-12-07T11:32:29;13.10;;;10.20;;
830;SDS011;397;50.564;7.272;2023-12-07T11:35:02;12.77;;;10.47;;
830;SDS011;397;50.564;7.272;2023-12-07T11:37:59;12.50;;;10.40;;
830;SDS011;397;50.564;7.272;2023-12-07T11:39:58;14.10;;;10.53;;
830;SDS011;397;50.564;7.272;2023-12-07T11:42:25;12.13;;;10.00;;
830;SDS011;397;50.564;7.272;2023-12-07T11:44:53;12.10;;;10.80;;
830;SDS011;397;50.564;7.272;2023-12-07T11:47:20;12.70;;;10.77;;
830;SDS011;397;50.564;7.272;2023-12-07T11:49:47;11.80;;;10.13;;
830;SDS011;397;50.564;7.272;2023-12-07T11:52:19;13.07;;;8.90;;
830;SDS011;397;50.564;7.272;2023-12-07T11:54:46;9.97;;;8.97;;
830;SDS011;397;50.564;7.272;2023-12-07T11:57:14;11.77;;;9.50;;
830;SDS011;397;50.564;7.272;2023-12-07T11:59:43;11.70;;;9.60;;
830;SDS011;397;50.564;7.272;2023-12-07T12:02:11;11.17;;;9.67;;
830;SDS011;397;50.564;7.272;2023-12-07T12:04:42;16.20;;;12.40;;
830;SDS011;397;50.564;7.272;2023-12-07T12:07:09;11.60;;;10.13;;
830;SDS011;397;50.564;7.272;2023-12-07T12:09:36;12.30;;;11.00;;
830;SDS011;397;50.564;7.272;2023-12-07T12:12:04;14.73;;;10.70;;
830;SDS011;397;50.564;7.272;2023-12-07T12:14:31;16.33;;;10.33;;
830;SDS011;397;50.564;7.272;2023-12-07T12:16:59;12.47;;;11.03;;
830;SDS011;397;50.564;7.272;2023-12-07T12:19:26;10.63;;;9.50;;
830;SDS011;397;50.564;7.272;2023-12-07T12:21:57;11.57;;;10.17;;
830;SDS011;397;50.564;7.272;2023-12-07T12:24:24;12.67;;;11.23;;
830;SDS011;397;50.564;7.272;2023-12-07T12:26:51;13.20;;;11.40;;
830;SDS011;397;50.564;7.272;2023-12-07T12:29:19;13.50;;;11.73;;
830;SDS011;397;50.564;7.272;2023-12-07T12:31:46;14.53;;;11.30;;
830;SDS011;397;50.564;7.272;2023-12-07T12:34:14;15.70;;;12.70;;
830;SDS011;397;50.564;7.272;2023-12-07T12:36:41;15.43;;;12.70;;
830;SDS011;397;50.564;7.272;2023-12-07T12:39:08;14.90;;;11.77;;
830;SDS011;397;50.564;7.272;2023-12-07T12:41:36;17.10;;;11.53;;
830;SDS011;397;50.564;7.272;2023-12-07T12:44:05;14.67;;;11.47;;
830;SDS011;397;50.564;7.272;2023-12-07T12:46:33;13.63;;;12.23;;
830;SDS011;397;50.564;7.272;2023-12-07T12:49:01;12.63;;;11.20;;
830;SDS011;397;50.564;7.272;2023-12-07T12:51:29;16.90;;;11.80;;
830;SDS011;397;50.564;7.272;2023-12-07T12:53:58;14.90;;;11.80;;
830;SDS011;397;50.564;7.272;2023-12-07T12:56:26;15.13;;;11.67;;
830;SDS011;397;50.564;7.272;2023-12-07T12:58:54;16.43;;;12.10;;
830;SDS011;397;50.564;7.272;2023-12-07T13:01:24;12.70;;;11.10;;
830;SDS011;397;50.564;7.272;2023-12-07T13:03:52;19.30;;;12.97;;
830;SDS011;397;50.564;7.272;2023-12-07T13:06:19;15.17;;;11.77;;
830;SDS011;397;50.564;7.272;2023-12-07T13:08:47;15.50;;;12.10;;
830;SDS011;397;50.564;7.272;2023-12-07T13:11:15;14.23;;;12.73;;
830;SDS011;397;50.564;7.272;2023-12-07T13:13:43;16.27;;;12.20;;
830;SDS011;397;50.564;7.272;2023-12-07T13:16:10;14.77;;;12.17;;
830;SDS011;397;50.564;7.272;2023-12-07T13:18:39;13.33;;;11.30;;
830;SDS011;397;50.564;7.272;2023-12-07T13:21:06;16.17;;;11.80;;
830;SDS011;397;50.564;7.272;2023-12-07T13:23:35;14.57;;;12.30;;
830;SDS011;397;50.564;7.272;2023-12-07T13:26:03;14.70;;;11.80;;
830;SDS011;397;50.564;7.272;2023-12-07T13:28:32;15.90;;;12.87;;
830;SDS011;397;50.564;7.272;2023-12-07T13:30:59;16.03;;;12.33;;
830;SDS011;397;50.564;7.272;2023-12-07T13:33:27;14.90;;;12.30;;
830;SDS011;397;50.564;7.272;2023-12-07T13:35:54;16.20;;;13.30;;
830;SDS011;397;50.564;7.272;2023-12-07T13:38:21;13.80;;;12.40;;
830;SDS011;397;50.564;7.272;2023-12-07T13:40:49;17.47;;;13.50;;
830;SDS011;397;50.564;7.272;2023-12-07T13:43:17;19.93;;;16.33;;
830;SDS011;397;50.564;7.272;2023-12-07T13:45:44;15.97;;;11.93;;
830;SDS011;397;50.564;7.272;2023-12-07T13:48:11;20.23;;;16.87;;
830;SDS011;397;50.564;7.272;2023-12-07T13:50:38;20.73;;;15.77;;
830;SDS011;397;50.564;7.272;2023-12-07T13:53:06;18.20;;;11.93;;
830;SDS011;397;50.564;7.272;2023-12-07T13:55:35;14.37;;;12.17;;
830;SDS011;397;50.564;7.272;2023-12-07T13:58:03;16.40;;;12.73;;
830;SDS011;397;50.564;7.272;2023-12-07T14:00:31;17.70;;;13.80;;
830;SDS011;397;50.564;7.272;2023-12-07T14:02:58;13.70;;;12.27;;
830;SDS011;397;50.564;7.272;2023-12-07T14:05:25;17.13;;;11.50;;
830;SDS011;397;50.564;7.272;2023-12-07T14:07:53;16.10;;;11.93;;
830;SDS011;397;50.564;7.272;2023-12-07T14:10:20;16.03;;;11.60;;
830;SDS011;397;50.564;7.272;2023-12-07T14:12:48;15.43;;;12.27;;
830;SDS011;397;50.564;7.272;2023-12-07T14:15:15;13.70;;;10.57;;
830;SDS011;397;50.564;7.272;2023-12-07T14:17:42;15.60;;;11.60;;
830;SDS011;397;50.564;7.272;2023-12-07T14:20:11;13.73;;;10.93;;
830;SDS011;397;50.564;7.272;2023-12-07T14:22:38;14.37;;;11.47;;
830;SDS011;397;50.564;7.272;2023-12-07T14:25:05;15.63;;;11.60;;
830;SDS011;397;50.564;7.272;2023-12-07T14:27:33;11.20;;;9.80;;
830;SDS011;397;50.564;7.272;2023-12-07T14:30:00;13.80;;;11.50;;
830;SDS011;397;50.564;7.272;2023-12-07T14:32:27;12.97;;;10.87;;
830;SDS011;397;50.564;7.272;2023-12-07T14:34:55;12.40;;;9.57;;
830;SDS011;397;50.564;7.272;2023-12-07T14:37:23;13.40;;;10.93;;
830;SDS011;397;50.564;7.272;2023-12-07T14:39:50;14.40;;;11.67;;
830;SDS011;397;50.564;7.272;2023-12-07T14:42:17;14.90;;;12.00;;
830;SDS011;397;50.564;7.272;2023-12-07T14:44:45;24.50;;;11.33;;
830;SDS011;397;50.564;7.272;2023-12-07T14:47:12;16.03;;;12.30;;
830;SDS011;397;50.564;7.272;2023-12-07T14:49:40;17.37;;;12.13;;
830;SDS011;397;50.564;7.272;2023-12-07T14:52:07;14.63;;;12.10;;
830;SDS011;397;50.564;7.272;2023-12-07T14:54:39;16.87;;;12.57;;
830;SDS011;397;50.564;7.272;2023-12-07T14:57:03;17.63;;;12.40;;
830;SDS011;397;50.564;7.272;2023-12-07T14:59:32;19.27;;;12.63;;
830;SDS011;397;50.564;7.272;2023-12-07T15:01:59;12.87;;;11.43;;
830;SDS011;397;50.564;7.272;2023-12-07T15:04:26;16.43;;;12.90;;
830;SDS011;397;50.564;7.272;2023-12-07T15:06:54;17.47;;;11.87;;
830;SDS011;397;50.564;7.272;2023-12-07T15:09:21;16.67;;;12.53;;
830;SDS011;397;50.564;7.272;2023-12-07T15:11:48;15.20;;;11.67;;
830;SDS011;397;50.564;7.272;2023-12-07T15:14:16;14.53;;;11.27;;
830;SDS011;397;50.564;7.272;2023-12-07T15:16:43;14.53;;;12.17;;
830;SDS011;397;50.564;7.272;2023-12-07T15:19:11;13.50;;;12.10;;
830;SDS011;397;50.564;7.272;2023-12-07T15:21:38;13.60;;;11.60;;
830;SDS011;397;50.564;7.272;2023-12-07T15:24:05;14.80;;;11.83;;